Time;durP1;ratioP1;P1;durP2;ratioP2;P2;SDS_P1;SDS_P2;PMS_P1;PMS_P2;Temp;Humidity;BMP_temperature;BMP_pressure;BME280_temperature;BME280_humidity;BME280_pressure;Samples;Min_cycle;Max_cycle;Signal;HPM_P1;HPM_P2
2022/10/25 00:01:18;;;;;;;2.35;1.00;;;;;;;13.16;nan;100552.97;5080402;28;20528;-68
2022/10/25 00:03:43;;;;;;;3.58;1.10;;;;;;;13.15;nan;100550.47;5072902;28;20036;-68
2022/10/25 00:06:10;;;;;;;3.65;0.85;;;;;;;13.13;nan;100555.09;5096987;28;20123;-69
2022/10/25 00:08:35;;;;;;;2.13;0.85;;;;;;;13.11;nan;100542.00;5090534;28;20473;-69
2022/10/25 00:11:01;;;;;;;2.15;0.88;;;;;;;13.11;nan;100543.84;5070188;28;20096;-69
2022/10/25 00:13:26;;;;;;;1.83;0.63;;;;;;;13.08;nan;100544.97;5083081;28;20032;-69
2022/10/25 00:15:52;;;;;;;1.58;0.70;;;;;;;13.06;nan;100540.84;5076212;28;20075;-69
2022/10/25 00:18:17;;;;;;;1.60;0.60;;;;;;;13.04;nan;100550.78;5068767;28;20040;-69
2022/10/25 00:20:45;;;;;;;2.53;0.90;;;;;;;13.02;nan;100544.84;5072422;28;20052;-69
2022/10/25 00:23:11;;;;;;;2.80;0.88;;;;;;;13.03;nan;100543.84;5099447;28;20031;-69
2022/10/25 00:25:36;;;;;;;2.58;0.93;;;;;;;13.05;nan;100547.16;5084787;28;20532;-69
2022/10/25 00:28:01;;;;;;;1.70;0.80;;;;;;;13.02;nan;100548.31;5071046;28;20329;-68
2022/10/25 00:30:27;;;;;;;4.65;1.00;;;;;;;13.04;nan;100553.44;5084721;28;20835;-69
2022/10/25 00:32:53;;;;;;;3.50;0.90;;;;;;;13.03;nan;100546.50;5070081;28;20039;-69
2022/10/25 00:35:18;;;;;;;3.03;0.90;;;;;;;13.00;nan;100552.97;5086599;28;20123;-69
2022/10/25 00:37:44;;;;;;;1.45;0.90;;;;;;;12.99;nan;100546.00;5084457;28;20130;-69
2022/10/25 00:40:09;;;;;;;2.03;0.88;;;;;;;12.99;nan;100553.97;5082522;28;20040;-69
2022/10/25 00:42:35;;;;;;;3.00;1.02;;;;;;;12.97;nan;100561.28;5086208;28;20397;-69
2022/10/25 00:45:10;;;;;;;2.20;0.93;;;;;;;12.96;nan;100556.94;5081987;28;20377;-69
2022/10/25 00:47:40;;;;;;;2.58;1.10;;;;;;;12.94;nan;100559.78;5087725;28;20043;-69
2022/10/25 00:50:34;;;;;;;1.60;0.80;;;;;;;12.94;nan;100558.94;5088065;28;20067;-69
2022/10/25 00:53:09;;;;;;;2.20;1.00;;;;;;;12.91;nan;100567.22;5063294;28;20085;-68
2022/10/25 00:55:38;;;;;;;2.15;0.90;;;;;;;12.92;nan;100563.59;5085813;28;20525;-68
2022/10/25 00:58:16;;;;;;;1.92;0.73;;;;;;;12.90;nan;100569.06;5089564;28;20028;-69
2022/10/25 01:00:44;;;;;;;3.75;1.02;;;;;;;12.87;nan;100566.75;5072432;28;20446;-68
2022/10/25 01:03:11;;;;;;;2.55;1.27;;;;;;;12.84;nan;100559.09;5089440;28;20070;-68
2022/10/25 01:05:36;;;;;;;2.67;0.90;;;;;;;12.87;nan;100560.59;5093675;28;20024;-69
2022/10/25 01:08:03;;;;;;;2.75;0.90;;;;;;;12.87;nan;100568.56;5096903;28;20040;-68
2022/10/25 01:10:28;;;;;;;1.77;0.77;;;;;;;12.85;nan;100574.03;5069810;28;20501;-69
2022/10/25 01:12:54;;;;;;;1.77;0.80;;;;;;;12.84;nan;100574.19;5089956;28;20047;-68
2022/10/25 01:15:24;;;;;;;1.80;1.00;;;;;;;12.81;nan;100574.53;5089487;28;20143;-68
2022/10/25 01:18:02;;;;;;;1.98;0.85;;;;;;;12.73;nan;100568.22;5090191;28;20195;-69
2022/10/25 01:20:39;;;;;;;2.22;0.80;;;;;;;12.72;nan;100568.38;5088771;28;20405;-68
2022/10/25 01:23:35;;;;;;;1.42;0.75;;;;;;;12.72;nan;100568.38;5103089;28;20028;-68
2022/10/25 01:26:12;;;;;;;2.20;0.80;;;;;;;12.70;nan;100571.22;5083363;28;20064;-69
2022/10/25 01:29:04;;;;;;;2.50;1.00;;;;;;;12.68;nan;100570.56;5088656;28;20055;-69
2022/10/25 01:31:46;;;;;;;3.08;0.98;;;;;;;12.67;nan;100570.72;5087278;28;20048;-68
2022/10/25 01:34:27;;;;;;;5.30;1.45;;;;;;;12.66;nan;100569.88;5084532;28;20032;-68
2022/10/25 01:37:13;;;;;;;2.10;0.90;;;;;;;12.69;nan;100564.25;5084976;28;20385;-69
2022/10/25 01:39:48;;;;;;;2.15;0.90;;;;;;;12.68;nan;100567.03;5087201;28;20042;-68
2022/10/25 01:42:22;;;;;;;1.85;0.90;;;;;;;12.70;nan;100573.03;5084490;28;20067;-69
2022/10/25 01:45:20;;;;;;;2.58;0.80;;;;;;;12.68;nan;100565.25;5087435;28;20028;-68
2022/10/25 01:48:06;;;;;;;3.08;1.10;;;;;;;12.70;nan;100573.03;5084286;28;20050;-68
2022/10/25 01:50:37;;;;;;;1.83;1.00;;;;;;;12.68;nan;100575.00;5084479;28;20044;-69
2022/10/25 01:53:03;;;;;;;1.27;0.75;;;;;;;12.66;nan;100575.19;5086713;28;20158;-69
2022/10/25 01:55:41;;;;;;;5.03;1.00;;;;;;;12.64;nan;100568.38;5087956;28;20059;-69
2022/10/25 01:58:27;;;;;;;2.08;1.10;;;;;;;12.65;nan;100567.38;5083552;28;20039;-69
2022/10/25 02:01:02;;;;;;;2.42;0.85;;;;;;;12.62;nan;100571.19;5080789;28;20065;-68
2022/10/25 02:03:37;;;;;;;1.42;0.90;;;;;;;12.58;nan;100569.84;5085474;28;20051;-68
2022/10/25 02:06:33;;;;;;;5.18;1.00;;;;;;;12.53;nan;100577.47;5090300;28;20028;-69
2022/10/25 02:09:19;;;;;;;3.83;0.95;;;;;;;12.57;nan;100573.50;5080783;28;20491;-68
2022/10/25 02:11:44;;;;;;;3.80;1.02;;;;;;;12.55;nan;100575.50;5084342;28;20527;-68
2022/10/25 02:14:21;;;;;;;3.92;1.25;;;;;;;12.58;nan;100569.84;5084180;28;20036;-69
2022/10/25 02:16:56;;;;;;;4.28;1.13;;;;;;;12.59;nan;100576.03;5085185;28;20110;-68
2022/10/25 02:19:31;;;;;;;2.58;1.17;;;;;;;12.57;nan;100578.00;5085533;28;20036;-68
2022/10/25 02:22:00;;;;;;;2.70;0.90;;;;;;;12.63;nan;100577.31;5085491;28;20496;-68
2022/10/25 02:24:27;;;;;;;2.53;1.00;;;;;;;12.71;nan;100580.00;5087720;28;23318;-68
2022/10/25 02:26:55;;;;;;;1.60;0.90;;;;;;;12.78;nan;100581.00;5088224;28;20443;-69
2022/10/25 02:29:22;;;;;;;2.30;1.17;;;;;;;12.84;nan;100579.50;5086621;28;20486;-69
2022/10/25 02:31:47;;;;;;;2.42;0.98;;;;;;;12.82;nan;100579.66;5083101;28;20132;-69
2022/10/25 02:34:12;;;;;;;1.92;1.15;;;;;;;12.80;nan;100589.63;5085607;28;20389;-69
2022/10/25 02:36:38;;;;;;;3.67;1.10;;;;;;;12.86;nan;100585.47;5084120;28;20109;-68
2022/10/25 02:39:05;;;;;;;3.63;1.17;;;;;;;12.91;nan;100581.31;5085319;28;20085;-68
2022/10/25 02:41:32;;;;;;;2.05;1.00;;;;;;;12.91;nan;100572.53;5082570;28;20544;-69
2022/10/25 02:43:57;;;;;;;3.05;1.20;;;;;;;12.94;nan;100577.50;5084156;28;20488;-68
2022/10/25 02:46:23;;;;;;;3.50;1.10;;;;;;;12.89;nan;100570.03;5086263;28;20055;-68
2022/10/25 02:48:49;;;;;;;1.48;0.85;;;;;;;12.90;nan;100574.38;5084972;28;20032;-69
2022/10/25 02:51:16;;;;;;;3.33;1.35;;;;;;;12.87;nan;100573.88;5085474;28;20047;-68
2022/10/25 02:53:41;;;;;;;2.13;1.00;;;;;;;12.81;nan;100570.06;5087189;28;20034;-69
2022/10/25 02:56:10;;;;;;;3.30;1.20;;;;;;;12.75;nan;100563.59;5085890;28;20036;-69
2022/10/25 02:58:37;;;;;;;2.28;1.23;;;;;;;12.75;nan;100565.41;5087533;28;20032;-68
2022/10/25 03:01:04;;;;;;;2.55;1.10;;;;;;;12.73;nan;100572.72;5085618;28;20039;-68
2022/10/25 03:03:30;;;;;;;2.58;1.10;;;;;;;12.71;nan;100569.41;5082836;28;20093;-69
2022/10/25 03:05:56;;;;;;;5.88;2.03;;;;;;;12.69;nan;100571.38;5089067;28;20031;-69
2022/10/25 03:08:22;;;;;;;2.80;1.17;;;;;;;12.69;nan;100571.38;5084300;28;20149;-69
2022/10/25 03:10:48;;;;;;;3.42;1.20;;;;;;;12.67;nan;100576.00;5085644;28;20048;-68
2022/10/25 03:13:13;;;;;;;4.20;1.20;;;;;;;12.67;nan;100574.19;5084312;28;20117;-69
2022/10/25 03:15:38;;;;;;;2.28;1.20;;;;;;;12.64;nan;100573.69;5084975;28;20112;-69
2022/10/25 03:18:04;;;;;;;3.83;1.48;;;;;;;12.67;nan;100568.88;5084843;28;20036;-69
2022/10/25 03:20:29;;;;;;;4.55;0.98;;;;;;;12.67;nan;100568.88;5084877;28;20040;-69
2022/10/25 03:22:54;;;;;;;5.30;1.48;;;;;;;12.64;nan;100579.00;5068713;28;20035;-69
2022/10/25 03:25:19;;;;;;;2.70;1.23;;;;;;;12.64;nan;100579.81;5084077;28;20036;-68
2022/10/25 03:27:45;;;;;;;3.03;1.20;;;;;;;12.61;nan;100589.91;5087476;28;20605;-69
2022/10/25 03:30:12;;;;;;;3.63;1.42;;;;;;;12.57;nan;100581.47;5086689;28;20051;-68
2022/10/25 03:32:38;;;;;;;3.13;1.25;;;;;;;12.57;nan;100585.97;5084996;28;20032;-68
2022/10/25 03:35:04;;;;;;;4.47;1.30;;;;;;;12.53;nan;100586.25;5089407;28;20047;-68
2022/10/25 03:37:29;;;;;;;4.15;1.45;;;;;;;12.53;nan;100590.75;5086749;28;20119;-68
2022/10/25 03:39:54;;;;;;;3.53;1.40;;;;;;;12.50;nan;100589.25;5079686;28;20105;-69
2022/10/25 03:42:19;;;;;;;2.13;1.10;;;;;;;12.48;nan;100593.06;5086885;28;20669;-69
2022/10/25 03:44:45;;;;;;;3.35;1.25;;;;;;;12.46;nan;100589.72;5087987;28;20036;-69
2022/10/25 03:47:10;;;;;;;3.10;1.45;;;;;;;12.44;nan;100587.25;5086731;28;20446;-69
2022/10/25 03:49:36;;;;;;;3.47;1.30;;;;;;;12.45;nan;100594.22;5084700;28;20089;-69
2022/10/25 03:52:01;;;;;;;4.00;1.30;;;;;;;12.44;nan;100597.88;5087329;28;20044;-67
2022/10/25 03:54:26;;;;;;;4.05;1.38;;;;;;;12.45;nan;100599.53;5086287;28;20088;-69
2022/10/25 03:56:51;;;;;;;4.60;1.25;;;;;;;12.47;nan;100602.03;5073167;28;20123;-68
2022/10/25 03:59:17;;;;;;;5.28;1.40;;;;;;;12.47;nan;100607.31;5091096;28;20121;-68
2022/10/25 04:01:42;;;;;;;5.05;1.35;;;;;;;12.51;nan;100611.28;5091334;28;20032;-69
2022/10/25 04:04:07;;;;;;;6.43;1.75;;;;;;;12.53;nan;100610.13;5090332;28;20078;-69
2022/10/25 04:06:32;;;;;;;4.70;1.20;;;;;;;12.58;nan;100611.47;5097568;28;20047;-68
2022/10/25 04:08:58;;;;;;;3.78;1.02;;;;;;;12.59;nan;100613.16;5069151;28;20054;-69
2022/10/25 04:11:23;;;;;;;4.13;1.30;;;;;;;12.53;nan;100594.22;5070691;28;20047;-69
2022/10/25 04:13:48;;;;;;;3.78;1.25;;;;;;;12.52;nan;100603.19;5080438;28;20101;-68
2022/10/25 04:16:16;;;;;;;3.45;1.20;;;;;;;12.52;nan;100608.47;5090719;28;20058;-69
2022/10/25 04:18:41;;;;;;;4.07;1.05;;;;;;;12.50;nan;100607.00;5090750;28;20040;-69
2022/10/25 04:21:06;;;;;;;4.03;1.30;;;;;;;12.55;nan;100607.31;5092380;28;20032;-68
2022/10/25 04:23:31;;;;;;;2.42;1.23;;;;;;;12.61;nan;100613.78;5102325;28;20036;-68
2022/10/25 04:25:57;;;;;;;4.40;1.40;;;;;;;12.62;nan;100602.22;5088937;28;20052;-69
2022/10/25 04:28:23;;;;;;;2.25;1.10;;;;;;;12.65;nan;100612.47;5085218;28;20275;-68
2022/10/25 04:30:49;;;;;;;4.28;1.33;;;;;;;12.61;nan;100611.13;5079196;28;20682;-68
2022/10/25 04:33:14;;;;;;;5.85;1.65;;;;;;;12.58;nan;100609.66;5085943;28;20107;-69
2022/10/25 04:35:40;;;;;;;4.90;1.30;;;;;;;12.55;nan;100602.03;5089143;28;20381;-68
2022/10/25 04:38:05;;;;;;;4.63;1.50;;;;;;;12.49;nan;100597.38;5087525;28;20032;-69
2022/10/25 04:40:30;;;;;;;3.78;1.70;;;;;;;12.48;nan;100599.19;5086598;28;20216;-68
2022/10/25 04:42:56;;;;;;;5.93;1.70;;;;;;;12.47;nan;100591.41;5086451;28;20041;-68
2022/10/25 04:45:22;;;;;;;3.75;1.50;;;;;;;12.47;nan;100594.88;5088163;28;20519;-69
2022/10/25 04:47:47;;;;;;;3.55;1.67;;;;;;;12.44;nan;100589.91;5087591;28;20051;-68
2022/10/25 04:50:12;;;;;;;5.10;1.50;;;;;;;12.45;nan;100602.16;5085997;28;20024;-69
2022/10/25 04:52:38;;;;;;;4.47;1.58;;;;;;;12.49;nan;100602.69;5069641;28;20397;-68
2022/10/25 04:55:03;;;;;;;3.92;1.40;;;;;;;12.60;nan;100602.34;5087054;28;20040;-69
2022/10/25 04:57:29;;;;;;;4.55;1.50;;;;;;;12.75;nan;100602.53;5088502;28;20067;-68
2022/10/25 04:59:56;;;;;;;4.38;1.63;;;;;;;12.85;nan;100605.88;5085327;28;20081;-69
2022/10/25 05:02:22;;;;;;;4.45;1.67;;;;;;;12.92;nan;100614.84;5086079;28;20028;-69
2022/10/25 05:04:47;;;;;;;3.88;1.50;;;;;;;12.98;nan;100612.53;5091832;28;20035;-68
2022/10/25 05:07:16;;;;;;;5.10;1.83;;;;;;;13.04;nan;100622.47;5090690;28;20083;-69
2022/10/25 05:09:41;;;;;;;4.22;1.42;;;;;;;13.07;nan;100622.16;5086929;28;20036;-69
2022/10/25 05:12:06;;;;;;;3.97;1.50;;;;;;;13.13;nan;100632.94;5082101;28;20032;-69
2022/10/25 05:14:32;;;;;;;4.63;1.30;;;;;;;13.17;nan;100626.28;5086184;28;20277;-69
2022/10/25 05:16:57;;;;;;;3.25;1.40;;;;;;;13.21;nan;100626.81;5084783;28;20467;-68
2022/10/25 05:19:23;;;;;;;3.97;1.55;;;;;;;13.21;nan;100623.31;5075015;28;20110;-69
2022/10/25 05:21:48;;;;;;;5.43;1.58;;;;;;;13.28;nan;100635.78;5069048;28;20051;-69
2022/10/25 05:24:13;;;;;;;4.53;1.50;;;;;;;13.32;nan;100630.97;5086013;28;20039;-69
2022/10/25 05:26:38;;;;;;;5.43;1.63;;;;;;;13.36;nan;100634.97;5085631;28;20279;-69
2022/10/25 05:29:04;;;;;;;5.85;1.70;;;;;;;13.32;nan;100623.84;5086711;28;20281;-68
2022/10/25 05:31:29;;;;;;;4.70;1.65;;;;;;;13.25;nan;100621.97;5084752;28;20464;-69
2022/10/25 05:33:58;;;;;;;6.28;1.65;;;;;;;13.27;nan;100636.78;5085373;28;20516;-68
2022/10/25 05:36:24;;;;;;;4.95;1.90;;;;;;;13.27;nan;100634.13;5084006;28;20039;-69
2022/10/25 05:38:50;;;;;;;4.50;1.52;;;;;;;13.30;nan;100636.47;5084213;28;20638;-69
2022/10/25 05:41:16;;;;;;;6.72;1.60;;;;;;;13.32;nan;100630.97;5085085;28;20051;-68
2022/10/25 05:43:42;;;;;;;3.75;1.77;;;;;;;;;;5070406;28;20032;-68
2022/10/25 05:46:09;;;;;;;4.63;1.70;;;;;;;;;;5084750;28;20105;-69
2022/10/25 05:48:34;;;;;;;3.10;1.70;;;;;;;;;;5083195;28;20059;-69
2022/10/25 05:51:13;;;;;;;3.13;1.38;;;;;;;;;;5084084;28;20036;-68
2022/10/25 05:53:46;;;;;;;3.67;2.00;;;;;;;13.28;nan;100566.75;5085250;28;20032;-68
2022/10/25 05:56:12;;;;;;;5.50;1.70;;;;;;;;;;5073432;28;20032;-69
2022/10/25 05:58:37;;;;;;;4.18;1.60;;;;;;;;;;5069097;28;20512;-68
2022/10/25 06:01:03;;;;;;;4.07;1.80;;;;;;;;;;5068894;28;20044;-68
2022/10/25 06:03:28;;;;;;;4.97;1.80;;;;;;;;;;5050530;28;20339;-69
2022/10/25 06:05:53;;;;;;;5.77;1.60;;;;;;;;;;5094526;28;20703;-68
2022/10/25 06:08:18;;;;;;;5.88;1.77;;;;;;;;;;5108362;28;20044;-69
2022/10/25 06:10:43;;;;;;;4.00;1.70;;;;;;;;;;5090484;28;20059;-68
2022/10/25 06:13:09;;;;;;;6.53;1.87;;;;;;;;;;5088010;28;20115;-68
2022/10/25 06:15:36;;;;;;;4.93;1.97;;;;;;;;;;5088567;28;20639;-68
2022/10/25 06:18:02;;;;;;;4.97;2.03;;;;;;;;;;5088056;28;20069;-69
2022/10/25 06:20:27;;;;;;;3.57;1.67;;;;;;;;;;5069525;28;20044;-68
2022/10/25 06:22:52;;;;;;;5.50;1.80;;;;;;;;;;5101716;28;20285;-69
2022/10/25 06:25:17;;;;;;;5.43;1.90;;;;;;;;;;5070319;28;20074;-68
2022/10/25 06:27:42;;;;;;;6.78;2.00;;;;;;;;;;5088456;28;20063;-68
2022/10/25 06:30:08;;;;;;;3.90;1.77;;;;;;;;;;5087398;28;20108;-69
2022/10/25 06:32:35;;;;;;;3.95;1.80;;;;;;;;;;5088756;28;20043;-69
2022/10/25 06:35:00;;;;;;;3.58;1.67;;;;;;;;;;5088220;28;20032;-69
2022/10/25 06:37:26;;;;;;;4.50;1.57;;;;;;;;;;5088504;28;20040;-68
2022/10/25 06:39:51;;;;;;;6.33;2.07;;;;;;;;;;5088151;28;20386;-69
2022/10/25 06:42:16;;;;;;;6.53;1.87;;;;;;;;;;5087982;28;20043;-69
2022/10/25 06:44:41;;;;;;;7.38;1.80;;;;;;;;;;5072318;28;20378;-68
2022/10/25 06:47:06;;;;;;;5.70;1.70;;;;;;;;;;5067944;28;20341;-69
2022/10/25 06:49:31;;;;;;;6.20;2.27;;;;;;;;;;5070735;28;20044;-68
2022/10/25 06:51:57;;;;;;;4.80;1.53;;;;;;;;;;5067750;28;20028;-69
2022/10/25 06:54:24;;;;;;;5.10;1.90;;;;;;;;;;5079496;28;20553;-69
2022/10/25 06:56:49;;;;;;;5.28;1.80;;;;;;;;;;5088136;28;20522;-69
2022/10/25 06:59:14;;;;;;;6.43;1.77;;;;;;;;;;5087979;28;20044;-69
2022/10/25 07:01:39;;;;;;;3.93;1.63;;;;;;;;;;5087716;28;20047;-69
2022/10/25 07:04:05;;;;;;;4.63;1.90;;;;;;;;;;5087731;28;20269;-69
2022/10/25 07:06:34;;;;;;;3.57;1.50;;;;;;;;;;5088784;28;20445;-68
2022/10/25 07:09:00;;;;;;;6.00;1.50;;;;;;;;;;5087973;28;20278;-68
2022/10/25 07:11:26;;;;;;;3.28;1.50;;;;;;;;;;5087935;28;20143;-69
2022/10/25 07:13:52;;;;;;;4.43;1.70;;;;;;;;;;5088002;28;20135;-69
2022/10/25 07:16:18;;;;;;;3.07;1.40;;;;;;;;;;5087771;28;20119;-69
2022/10/25 07:18:43;;;;;;;3.78;1.55;;;;;;;;;;5087793;28;20036;-68
2022/10/25 07:21:16;;;;;;;7.60;1.70;;;;;;;;;;5089415;28;20043;-68
2022/10/25 07:23:41;;;;;;;3.83;1.40;;;;;;;;;;5098715;28;20444;-68
2022/10/25 07:26:30;;;;;;;5.07;1.60;;;;;;;;;;5087393;28;20044;-70
2022/10/25 07:28:56;;;;;;;5.10;1.50;;;;;;;;;;5079014;28;20541;-69
2022/10/25 07:31:23;;;;;;;6.15;1.75;;;;;;;;;;5082416;28;20048;-69
2022/10/25 07:33:49;;;;;;;4.40;1.50;;;;;;;;;;5087732;28;20036;-69
2022/10/25 07:36:14;;;;;;;2.65;1.40;;;;;;;;;;5082093;28;20036;-69
2022/10/25 07:38:39;;;;;;;5.63;1.57;;;;;;;;;;5087686;28;20181;-69
2022/10/25 07:41:05;;;;;;;5.63;1.60;;;;;;;;;;5085740;28;20522;-69
2022/10/25 07:43:30;;;;;;;4.20;1.70;;;;;;;;;;5067044;28;20890;-69
2022/10/25 07:45:55;;;;;;;5.30;1.70;;;;;;;;;;5067481;28;20040;-69
2022/10/25 07:48:21;;;;;;;4.90;1.53;;;;;;;;;;5067844;28;20032;-69
2022/10/25 07:50:46;;;;;;;3.47;1.45;;;;;;;;;;5087376;28;20404;-68
2022/10/25 07:53:11;;;;;;;7.00;1.70;;;;;;;;;;5067734;28;20120;-69
2022/10/25 07:55:36;;;;;;;8.87;1.87;;;;;;;;;;5067481;28;20274;-69
2022/10/25 07:58:03;;;;;;;4.63;1.80;;;;;;;;;;5069105;28;20039;-70
2022/10/25 08:00:28;;;;;;;5.47;1.45;;;;;;;;;;5086709;28;20032;-69
2022/10/25 08:02:53;;;;;;;6.30;2.20;;;;;;;;;;5087321;28;20035;-69
2022/10/25 08:05:18;;;;;;;5.45;1.85;;;;;;;;;;5093701;28;20067;-69
2022/10/25 08:07:43;;;;;;;6.70;1.83;;;;;;;;;;5087728;28;20115;-69
2022/10/25 08:10:09;;;;;;;4.85;1.58;;;;;;;;;;5085623;28;20043;-70
2022/10/25 08:12:34;;;;;;;5.13;1.50;;;;;;;;;;5086862;28;20036;-69
2022/10/25 08:14:59;;;;;;;4.70;1.60;;;;;;;;;;5086967;28;20500;-69
2022/10/25 08:17:24;;;;;;;3.60;1.60;;;;;;;;;;5087411;28;20036;-69
2022/10/25 08:19:49;;;;;;;5.20;1.97;;;;;;;;;;5072127;28;20373;-68
2022/10/25 08:22:14;;;;;;;6.50;1.70;;;;;;;;;;5099542;28;20106;-69
2022/10/25 08:24:40;;;;;;;5.10;1.63;;;;;;;;;;5072758;28;20040;-69
2022/10/25 08:27:05;;;;;;;7.17;1.60;;;;;;;;;;5091304;28;20036;-69
2022/10/25 08:29:30;;;;;;;3.47;1.25;;;;;;;;;;5090050;28;20043;-68
2022/10/25 08:31:56;;;;;;;4.75;1.40;;;;;;;;;;5090288;28;20048;-69
2022/10/25 08:34:21;;;;;;;5.30;1.55;;;;;;;;;;5090288;28;20093;-69
2022/10/25 08:36:47;;;;;;;6.53;1.80;;;;;;;;;;5090305;28;20389;-69
2022/10/25 08:39:12;;;;;;;3.67;1.60;;;;;;;;;;5090924;28;20039;-68
2022/10/25 08:41:49;;;;;;;4.23;1.70;;;;;;;;;;5090388;28;20044;-69
2022/10/25 08:44:18;;;;;;;6.55;1.73;;;;;;;;;;5089579;28;20118;-68
2022/10/25 08:46:46;;;;;;;6.00;1.70;;;;;;;;;;5091577;28;20035;-68
2022/10/25 08:49:38;;;;;;;3.97;1.40;;;;;;;;;;5064363;28;20059;-68
2022/10/25 08:52:05;;;;;;;4.30;1.60;;;;;;;;;;5047833;28;20081;-68
2022/10/25 08:54:37;;;;;;;3.38;1.27;;;;;;;;;;5069578;28;20043;-68
2022/10/25 08:57:23;;;;;;;4.70;1.45;;;;;;;;;;5070581;28;20032;-68
2022/10/25 08:59:52;;;;;;;3.42;1.40;;;;;;;;;;5070449;28;20055;-69
2022/10/25 09:02:20;;;;;;;4.57;1.70;;;;;;;;;;5069439;28;20112;-68
2022/10/25 09:04:46;;;;;;;4.25;1.45;;;;;;;;;;5075490;28;20063;-68
2022/10/25 09:07:11;;;;;;;4.25;1.52;;;;;;;;;;5093989;28;20089;-68
2022/10/25 09:09:36;;;;;;;4.65;1.60;;;;;;;;;;5089423;28;20085;-68
2022/10/25 09:12:01;;;;;;;7.57;1.50;;;;;;;;;;5072068;28;20036;-68
2022/10/25 09:14:47;;;;;;;5.93;1.77;;;;;;;;;;5090042;28;20036;-68
2022/10/25 09:17:19;;;;;;;4.32;1.67;;;;;;;;;;5089843;28;20032;-68
2022/10/25 09:19:51;;;;;;;6.65;1.67;;;;;;;;;;5090293;28;20041;-68
2022/10/25 09:22:19;;;;;;;5.93;1.60;;;;;;;;;;5096372;28;20058;-68
2022/10/25 09:24:44;;;;;;;5.60;1.60;;;;;;;;;;5071737;28;20032;-68
2022/10/25 09:27:32;;;;;;;5.80;1.40;;;;;;;;;;5081707;28;20036;-68
2022/10/25 09:29:59;;;;;;;5.50;1.23;;;;;;;;;;5079092;28;20040;-68
2022/10/25 09:32:31;;;;;;;2.88;1.35;;;;;;;;;;5088504;28;20486;-68
2022/10/25 09:34:58;;;;;;;3.97;1.40;;;;;;;;;;5089660;28;20032;-68
2022/10/25 09:37:30;;;;;;;5.25;1.45;;;;;;;17.25;nan;100675.72;5089108;28;20076;-68
2022/10/25 09:39:58;;;;;;;5.63;1.50;;;;;;;;;;5061767;28;20041;-68
2022/10/25 09:42:26;;;;;;;4.15;1.30;;;;;;;;;;5067829;28;20329;-68
2022/10/25 09:44:57;;;;;;;5.22;1.40;;;;;;;;;;5080941;28;20043;-68
2022/10/25 09:47:40;;;;;;;4.75;1.30;;;;;;;17.38;nan;100601.00;5070807;28;20043;-68
2022/10/25 09:50:26;;;;;;;5.55;1.48;;;;;;;17.39;nan;100581.25;5087816;28;20043;-68
2022/10/25 09:53:20;;;;;;;6.22;1.30;;;;;;;;;;5080976;28;20443;-68
2022/10/25 09:55:53;;;;;;;4.45;1.45;;;;;;;;;;5072019;28;20583;-68
2022/10/25 09:58:21;;;;;;;4.25;1.35;;;;;;;;;;5069007;28;20055;-69
2022/10/25 10:00:47;;;;;;;5.35;1.55;;;;;;;17.43;nan;100661.91;5088500;28;20048;-68
2022/10/25 10:03:12;;;;;;;4.65;1.50;;;;;;;;;;5087924;28;20123;-68
2022/10/25 10:05:39;;;;;;;5.32;1.88;;;;;;;;;;5094621;28;20493;-68
2022/10/25 10:08:04;;;;;;;4.35;1.40;;;;;;;;;;5088368;28;20024;-69
2022/10/25 10:10:31;;;;;;;6.15;1.20;;;;;;;;;;5069894;28;20125;-68
2022/10/25 10:13:00;;;;;;;5.75;1.50;;;;;;;;;;5088296;28;20032;-69
2022/10/25 10:15:27;;;;;;;4.35;1.60;;;;;;;;;;5088211;28;20036;-69
2022/10/25 10:18:18;;;;;;;4.63;1.58;;;;;;;;;;5087831;28;20039;-68
2022/10/25 10:20:58;;;;;;;5.55;1.70;;;;;;;;;;5084747;28;20032;-68
2022/10/25 10:23:24;;;;;;;4.70;1.30;;;;;;;;;;5083324;28;20040;-69
2022/10/25 10:25:50;;;;;;;3.33;1.10;;;;;;;;;;5073385;28;20489;-68
2022/10/25 10:28:16;;;;;;;4.90;1.50;;;;;;;;;;5083587;28;20051;-69
2022/10/25 10:30:41;;;;;;;5.78;1.40;;;;;;;;;;5070102;28;20047;-69
2022/10/25 10:33:16;;;;;;;3.45;1.35;;;;;;;18.61;nan;100603.06;5087967;28;20507;-68
2022/10/25 10:35:41;;;;;;;4.72;1.38;;;;;;;;;;5088454;28;20520;-69
2022/10/25 10:38:18;;;;;;;5.67;1.60;;;;;;;18.62;nan;100599.34;5069827;28;20043;-69
2022/10/25 10:40:43;;;;;;;6.18;1.23;;;;;;;;;;5070282;28;20040;-69
2022/10/25 10:43:21;;;;;;;5.20;1.10;;;;;;;;;;5087898;28;20144;-69
2022/10/25 10:45:49;;;;;;;5.72;1.50;;;;;;;18.93;nan;100600.69;5088789;28;20441;-69
2022/10/25 10:48:18;;;;;;;4.05;1.20;;;;;;;;;;5087727;28;20066;-69
2022/10/25 10:50:47;;;;;;;5.32;1.25;;;;;;;;;;5088220;28;20393;-69
2022/10/25 10:53:20;;;;;;;5.25;1.40;;;;;;;;;;5087867;28;20036;-68
2022/10/25 10:55:49;;;;;;;5.45;1.23;;;;;;;18.83;nan;100603.72;5088004;28;20274;-69
2022/10/25 10:58:22;;;;;;;5.68;1.33;;;;;;;18.77;nan;100594.66;5087428;28;20157;-69
2022/10/25 11:00:58;;;;;;;4.90;1.23;;;;;;;18.64;nan;100589.28;5087685;28;20450;-68
2022/10/25 11:03:41;;;;;;;4.95;1.45;;;;;;;;;;5087262;28;20028;-68
2022/10/25 11:06:12;;;;;;;5.25;1.30;;;;;;;;;;5086897;28;20059;-69
2022/10/25 11:08:37;;;;;;;3.30;1.10;;;;;;;;;;5087025;28;20044;-69
2022/10/25 11:11:19;;;;;;;5.70;1.40;;;;;;;;;;5087392;28;20097;-69
2022/10/25 11:13:48;;;;;;;;;;;;;;;;;;5088023;28;20039;-68
2022/10/25 11:16:32;;;;;;;5.45;1.27;;;;;;;;;;5084821;28;19965;-69
2022/10/25 11:19:09;;;;;;;3.03;1.10;;;;;;;18.80;nan;100594.25;5074161;28;20127;-68
2022/10/25 11:21:50;;;;;;;3.28;1.38;;;;;;;18.82;nan;100602.91;5088096;28;20035;-69
2022/10/25 11:24:40;;;;;;;5.53;1.05;;;;;;;18.89;nan;100602.94;5094477;28;20116;-69
2022/10/25 11:27:27;;;;;;;3.28;0.98;;;;;;;19.22;nan;100762.97;5095116;28;20389;-69
2022/10/25 11:29:58;;;;;;;6.82;1.38;;;;;;;19.56;nan;100775.41;5087263;28;20264;-69
2022/10/25 11:32:26;;;;;;;5.32;1.42;;;;;;;19.74;nan;100777.53;5086785;28;20556;-69
2022/10/25 11:35:23;;;;;;;5.18;1.17;;;;;;;19.81;nan;100781.03;5074894;28;20043;-69
2022/10/25 11:37:59;;;;;;;3.58;1.10;;;;;;;19.79;nan;100779.59;5066291;28;20033;-69
2022/10/25 11:40:30;;;;;;;4.63;1.25;;;;;;;19.98;nan;100773.38;5066119;28;20513;-68
2022/10/25 11:43:16;;;;;;;4.68;1.10;;;;;;;20.31;nan;100765.28;5066753;28;20044;-68
2022/10/25 11:45:48;;;;;;;3.45;1.10;;;;;;;20.63;nan;100764.59;5066762;28;20033;-68
2022/10/25 11:49:11;;;;;;;5.90;1.15;;;;;;;20.59;nan;100766.88;5066170;28;20029;-68
2022/10/25 11:51:47;;;;;;;5.53;1.20;;;;;;;20.72;nan;100764.13;5003820;28;20076;-68
2022/10/25 11:54:23;;;;;;;3.95;1.20;;;;;;;21.11;nan;100769.53;5005488;28;20034;-68
2022/10/25 11:57:13;;;;;;;3.95;0.90;;;;;;;21.43;nan;100759.66;5045320;28;20037;-68
2022/10/25 11:59:57;;;;;;;2.80;1.00;;;;;;;21.62;nan;100769.44;5079628;28;20047;-69
2022/10/25 12:02:48;;;;;;;4.95;1.30;;;;;;;21.61;nan;100769.66;5090066;28;20097;-68
2022/10/25 12:05:37;;;;;;;4.82;0.93;;;;;;;21.56;nan;100770.31;5093254;28;20027;-68
2022/10/25 12:08:29;;;;;;;2.72;1.05;;;;;;;21.56;nan;100766.81;5090867;28;20036;-68
2022/10/25 12:11:06;;;;;;;3.65;0.90;;;;;;;21.31;nan;100766.72;5090578;28;20036;-68
2022/10/25 12:13:49;;;;;;;4.30;0.85;;;;;;;20.87;nan;100763.88;5090441;28;20079;-68
2022/10/25 12:16:17;;;;;;;3.53;1.38;;;;;;;20.53;nan;100765.84;5089528;28;20035;-68
2022/10/25 12:18:46;;;;;;;4.35;1.23;;;;;;;20.34;nan;100764.03;5086251;28;20622;-68
2022/10/25 12:21:19;;;;;;;2.95;1.10;;;;;;;20.25;nan;100762.59;5092006;28;20032;-68
2022/10/25 12:23:50;;;;;;;3.28;1.08;;;;;;;20.11;nan;100756.41;5100286;28;20485;-68
2022/10/25 12:26:19;;;;;;;3.10;1.10;;;;;;;20.00;nan;100757.91;5090407;28;20438;-68
2022/10/25 12:28:49;;;;;;;3.63;1.10;;;;;;;19.95;nan;100757.69;5088263;28;20032;-68
2022/10/25 12:31:19;;;;;;;4.13;1.30;;;;;;;19.73;nan;100755.22;5089750;28;20492;-68
2022/10/25 12:33:50;;;;;;;3.78;0.90;;;;;;;19.52;nan;100755.38;5090849;28;20475;-68
2022/10/25 12:36:36;;;;;;;4.63;1.10;;;;;;;19.33;nan;100754.34;5090054;28;20040;-68
2022/10/25 12:39:11;;;;;;;5.35;1.27;;;;;;;19.34;nan;100753.31;5080650;28;20032;-68
2022/10/25 12:41:39;;;;;;;4.18;1.00;;;;;;;19.40;nan;100754.31;5076964;28;20485;-68
2022/10/25 12:44:22;;;;;;;4.93;1.15;;;;;;;19.34;nan;100753.31;5090024;28;20044;-68
2022/10/25 12:46:56;;;;;;;4.85;1.20;;;;;;;19.54;nan;100747.94;5089681;28;20085;-68
2022/10/25 12:50:03;;;;;;;5.05;1.10;;;;;;;19.70;nan;100744.06;5080349;28;20075;-68
2022/10/25 12:52:37;;;;;;;6.97;1.10;;;;;;;19.68;nan;100744.25;5037635;28;20039;-68
2022/10/25 12:55:29;;;;;;;4.28;1.30;;;;;;;19.61;nan;100743.41;5069930;28;20033;-68
2022/10/25 12:58:12;;;;;;;4.15;0.93;;;;;;;19.62;nan;100736.22;5078166;28;20048;-68
2022/10/25 13:00:55;;;;;;;3.95;1.27;;;;;;;19.53;nan;100738.25;5089379;28;20134;-69